Time;durP1;ratioP1;P1;durP2;ratioP2;P2;SDS_P1;SDS_P2;PMS_P1;PMS_P2;Temp;Humidity;BMP_temperature;BMP_pressure;BME280_temperature;BME280_humidity;BME280_pressure;Samples;Min_cycle;Max_cycle;Signal;HPM_P1;HPM_P2
2022/09/30 00:00:48;;;;;;;;;12.33;10.00;;;;;21.70;47.51;100254.73;110465;1264;13101;-60
2022/09/30 00:03:35;;;;;;;;;13.00;10.00;;;;;21.71;47.46;100257.59;110466;1264;14274;-59
2022/09/30 00:06:03;;;;;;;;;13.33;11.67;;;;;21.70;47.41;100264.73;110543;1264;13606;-61
2022/09/30 00:08:30;;;;;;;;;11.00;10.00;;;;;21.70;47.35;100274.54;110395;1264;16778;-61
2022/09/30 00:10:58;;;;;;;;;11.00;10.33;;;;;21.69;47.34;100281.19;110479;1264;15172;-61
2022/09/30 00:13:25;;;;;;;;;13.00;10.67;;;;;21.70;47.41;100282.08;110482;1264;14369;-60
2022/09/30 00:15:52;;;;;;;;;10.33;10.00;;;;;21.68;47.47;100279.24;110416;1262;13509;-62
2022/09/30 00:18:20;;;;;;;;;13.33;12.33;;;;;21.67;47.32;100279.79;110496;1264;13113;-60
2022/09/30 00:20:47;;;;;;;;;14.33;13.33;;;;;21.68;47.23;100282.69;110427;1264;15028;-60
2022/09/30 00:23:15;;;;;;;;;14.00;14.00;;;;;21.68;47.24;100282.61;110464;1265;14122;-60
2022/09/30 00:25:42;;;;;;;;;13.00;11.00;;;;;21.66;47.19;100278.86;110450;1264;14393;-57
2022/09/30 00:28:09;;;;;;;;;18.67;17.67;;;;;21.67;47.15;100272.37;110451;1265;15240;-62
2022/09/30 00:30:37;;;;;;;;;17.67;15.67;;;;;21.66;47.16;100270.09;110464;1264;15067;-59
2022/09/30 00:33:04;;;;;;;;;14.00;11.00;;;;;21.66;47.08;100269.25;110476;1265;13200;-60
2022/09/30 00:35:31;;;;;;;;;11.67;11.67;;;;;21.66;47.05;100267.48;110429;1264;14512;-61
2022/09/30 00:37:59;;;;;;;;;14.00;13.67;;;;;21.67;47.03;100270.85;110442;1262;14722;-60
2022/09/30 00:40:26;;;;;;;;;12.00;10.50;;;;;21.66;47.13;100271.52;110508;1262;13018;-62
2022/09/30 00:42:54;;;;;;;;;14.33;13.00;;;;;21.65;46.97;100270.47;110448;1264;14103;-60
2022/09/30 00:45:21;;;;;;;;;14.67;13.00;;;;;21.65;46.96;100275.54;110495;1264;13127;-60
2022/09/30 00:47:49;;;;;;;;;14.33;13.67;;;;;21.66;46.78;100276.59;110497;1264;13079;-61
2022/09/30 00:50:16;;;;;;;;;10.67;10.00;;;;;21.65;46.88;100273.02;110487;1265;13557;-62
2022/09/30 00:52:44;;;;;;;;;15.00;15.00;;;;;21.65;46.88;100276.63;110463;1264;13807;-63
2022/09/30 00:55:11;;;;;;;;;18.00;14.00;;;;;21.65;46.77;100271.05;110459;1264;15298;-62
2022/09/30 00:57:39;;;;;;;;;14.67;13.00;;;;;21.65;46.83;100273.41;110436;1262;13521;-61
2022/09/30 01:00:07;;;;;;;;;13.50;13.00;;;;;21.64;46.73;100271.65;110464;1265;12464;-61
2022/09/30 01:02:35;;;;;;;;;13.00;10.67;;;;;21.64;46.68;100273.34;110450;1264;14019;-58
2022/09/30 01:05:02;;;;;;;;;13.00;13.00;;;;;21.63;46.66;100270.21;110479;1265;14798;-60
2022/09/30 01:07:30;;;;;;;;;13.33;12.33;;;;;21.63;46.66;100271.67;110449;1264;14058;-62
2022/09/30 01:09:57;;;;;;;;;16.33;16.33;;;;;21.63;46.58;100271.34;110320;1263;18168;-58
2022/09/30 01:12:24;;;;;;;;;17.00;15.00;;;;;21.62;46.56;100271.18;110416;1265;13071;-59
2022/09/30 01:14:52;;;;;;;;;14.33;13.00;;;;;21.62;46.50;100269.55;110470;1264;13240;-59
2022/09/30 01:17:20;;;;;;;;;14.00;13.33;;;;;21.63;46.57;100277.30;110436;1264;14407;-59
2022/09/30 01:19:50;;;;;;;;;14.50;13.00;;;;;21.62;46.47;100279.91;110507;1262;13157;-60
2022/09/30 01:22:18;;;;;;;;;13.33;13.00;;;;;21.62;46.41;100283.05;110450;1265;14535;-60
2022/09/30 01:24:45;;;;;;;;;13.00;13.00;;;;;21.61;46.32;100286.40;110455;1264;20274;-62
2022/09/30 01:27:14;;;;;;;;;15.00;13.67;;;;;21.62;46.37;100282.17;110481;1265;12328;-59
2022/09/30 01:29:41;;;;;;;;;16.33;14.67;;;;;21.62;46.26;100278.17;110496;1262;13995;-59
2022/09/30 01:32:09;;;;;;;;;16.33;14.00;;;;;21.60;46.17;100282.11;110469;1264;13678;-60
2022/09/30 01:34:36;;;;;;;;;17.67;15.00;;;;;21.61;46.21;100276.29;110444;1263;13089;-61
2022/09/30 01:37:04;;;;;;;;;13.00;13.00;;;;;21.61;46.13;100275.87;110471;1264;13987;-61
2022/09/30 01:39:31;;;;;;;;;17.00;14.00;;;;;21.60;46.22;100278.89;110435;1262;13934;-61
2022/09/30 01:41:58;;;;;;;;;14.00;11.33;;;;;21.58;46.08;100276.52;110475;1264;13170;-62
2022/09/30 01:44:26;;;;;;;;;14.00;12.67;;;;;21.60;46.01;100282.33;110422;1263;13881;-59
2022/09/30 01:46:53;;;;;;;;;13.00;11.00;;;;;21.60;45.92;100286.32;110430;1265;13233;-61
2022/09/30 01:49:20;;;;;;;;;14.00;13.00;;;;;21.60;45.91;100287.79;110359;1264;14333;-61
2022/09/30 01:51:48;;;;;;;;;17.00;13.00;;;;;21.61;45.96;100290.80;110422;1265;14453;-62
2022/09/30 01:54:15;;;;;;;;;17.00;15.67;;;;;21.60;45.96;100290.92;110475;1265;13112;-62
2022/09/30 01:56:43;;;;;;;;;15.00;13.33;;;;;21.59;45.98;100296.46;110469;1264;14901;-62
2022/09/30 01:59:10;;;;;;;;;13.00;11.00;;;;;21.59;45.94;100298.84;110474;1262;13200;-62
2022/09/30 02:01:38;;;;;;;;;14.00;12.33;;;;;21.59;45.95;100307.66;110445;1265;15392;-62
2022/09/30 02:04:05;;;;;;;;;17.00;14.00;;;;;21.59;45.98;100314.41;110479;1264;14455;-62
2022/09/30 02:06:33;;;;;;;;;11.67;10.67;;;;;21.60;45.91;100318.95;110462;1262;14794;-60
2022/09/30 02:09:02;;;;;;;;;11.00;11.00;;;;;21.58;45.97;100317.64;110480;1264;12638;-60
2022/09/30 02:11:29;;;;;;;;;13.00;11.00;;;;;21.57;45.95;100308.46;110466;1264;14294;-62
2022/09/30 02:13:57;;;;;;;;;13.50;13.00;;;;;21.58;45.87;100308.40;110457;1264;13942;-60
2022/09/30 02:16:24;;;;;;;;;12.67;11.00;;;;;21.58;45.83;100313.98;110450;1265;14688;-62
2022/09/30 02:18:52;;;;;;;;;17.00;13.00;;;;;21.58;45.80;100314.42;110451;1264;14482;-60
2022/09/30 02:21:20;;;;;;;;;14.67;13.67;;;;;21.58;45.84;100319.52;110483;1264;13243;-60
2022/09/30 02:23:47;;;;;;;;;14.67;13.67;;;;;21.57;45.81;100321.09;110416;1264;13780;-61
2022/09/30 02:26:15;;;;;;;;;13.33;12.00;;;;;21.56;45.63;100322.30;110434;1264;14357;-61
2022/09/30 02:28:42;;;;;;;;;13.00;10.00;;;;;21.56;45.65;100317.19;110388;1262;13336;-58
2022/09/30 02:31:10;;;;;;;;;14.00;13.00;;;;;21.56;45.53;100318.90;110331;1264;13089;-60
2022/09/30 02:33:37;;;;;;;;;13.00;12.33;;;;;21.55;45.62;100322.38;110458;1264;15128;-61
2022/09/30 02:36:06;;;;;;;;;13.67;11.00;;;;;21.56;45.52;100319.98;110499;1265;13111;-60
2022/09/30 02:38:35;;;;;;;;;14.00;12.67;;;;;21.56;45.48;100317.42;110461;1264;13195;-62
2022/09/30 02:41:05;;;;;;;;;14.00;13.00;;;;;21.56;45.51;100319.40;110492;1264;14816;-62
2022/09/30 02:43:32;;;;;;;;;12.67;11.33;;;;;21.54;45.43;100320.35;110457;1264;14734;-61
2022/09/30 02:45:59;;;;;;;;;9.67;9.67;;;;;21.55;45.43;100320.75;110485;1264;16751;-61
2022/09/30 02:48:28;;;;;;;;;12.50;12.50;;;;;21.55;45.43;100315.33;110421;1264;13768;-60
2022/09/30 02:50:55;;;;;;;;;10.00;9.00;;;;;21.55;45.37;100315.73;110343;1265;13179;-60
2022/09/30 02:53:23;;;;;;;;;11.00;9.67;;;;;21.55;45.34;100321.73;110368;1264;13843;-60
2022/09/30 02:55:50;;;;;;;;;12.67;10.67;;;;;21.55;45.38;100323.77;111525;1264;12904;-60
2022/09/30 02:58:17;;;;;;;;;12.67;10.67;;;;;21.55;45.27;100323.92;110451;1264;14956;-61
2022/09/30 03:00:45;;;;;;;;;11.00;11.00;;;;;21.55;45.27;100329.84;110471;1264;14902;-61
2022/09/30 03:03:12;;;;;;;;;11.00;11.00;;;;;21.55;45.26;100329.34;110493;1264;13197;-60
2022/09/30 03:05:40;;;;;;;;;14.33;13.67;;;;;21.55;45.25;100332.77;110455;1264;15325;-61
2022/09/30 03:08:08;;;;;;;;;11.00;10.00;;;;;21.54;45.24;100334.70;110455;1264;14747;-61
2022/09/30 03:10:35;;;;;;;;;13.33;12.33;;;;;21.54;45.16;100335.08;110459;1262;15040;-62
2022/09/30 03:13:02;;;;;;;;;14.33;13.67;;;;;21.55;45.18;100338.48;110434;1264;14621;-59
2022/09/30 03:15:30;;;;;;;;;14.00;12.67;;;;;21.54;45.20;100337.85;110448;1264;13130;-60
2022/09/30 03:17:57;;;;;;;;;13.67;12.00;;;;;21.52;45.22;100342.06;110332;1264;13192;-57
2022/09/30 03:20:25;;;;;;;;;13.00;12.00;;;;;21.53;45.17;100349.17;110437;1264;13182;-60
2022/09/30 03:22:52;;;;;;;;;11.00;10.00;;;;;21.53;45.13;100359.58;110402;1264;12893;-60
2022/09/30 03:25:20;;;;;;;;;11.00;11.00;;;;;21.53;45.19;100358.11;110340;1264;13858;-61
2022/09/30 03:27:49;;;;;;;;;14.50;12.00;;;;;21.53;45.11;100357.56;110464;1264;13428;-60
2022/09/30 03:30:16;;;;;;;;;13.00;11.00;;;;;21.53;45.13;100356.30;110487;1265;13268;-60
2022/09/30 03:32:44;;;;;;;;;11.00;9.67;;;;;21.53;45.07;100349.21;110507;1262;13341;-62
2022/09/30 03:35:11;;;;;;;;;11.00;10.00;;;;;21.53;45.05;100351.39;110462;1264;13912;-59
2022/09/30 03:37:39;;;;;;;;;11.00;10.00;;;;;21.52;45.06;100353.52;110443;1265;13237;-61
2022/09/30 03:40:10;;;;;;;;;12.00;12.00;;;;;21.53;45.04;100355.65;110484;1264;14226;-62
2022/09/30 03:42:37;;;;;;;;;13.50;11.50;;;;;21.53;45.02;100355.45;110462;1263;13207;-59
2022/09/30 03:45:05;;;;;;;;;9.33;9.00;;;;;21.54;44.90;100357.31;110490;1264;12968;-62
2022/09/30 03:47:32;;;;;;;;;13.00;10.00;;;;;21.53;44.98;100361.00;110465;1262;14513;-61
2022/09/30 03:50:00;;;;;;;;;9.00;9.00;;;;;21.52;45.00;100362.38;110477;1264;14673;-60
2022/09/30 03:52:27;;;;;;;;;16.50;11.00;;;;;21.52;44.98;100369.50;110449;1265;14107;-62
2022/09/30 03:54:55;;;;;;;;;12.00;10.00;;;;;21.52;44.91;100363.30;110410;1264;13308;-61
2022/09/30 03:57:22;;;;;;;;;10.00;9.50;;;;;21.52;44.89;100362.61;110522;1264;13128;-62
2022/09/30 03:59:50;;;;;;;;;13.67;11.33;;;;;21.52;44.92;100365.38;110337;1264;14871;-63
2022/09/30 04:02:17;;;;;;;;;9.00;9.00;;;;;21.52;44.93;100367.73;110453;1264;14330;-62
2022/09/30 04:04:45;;;;;;;;;10.00;10.00;;;;;21.52;44.92;100363.41;110478;1263;14688;-63
2022/09/30 04:07:12;;;;;;;;;12.33;10.67;;;;;21.51;45.01;100360.50;110469;1264;13573;-61
2022/09/30 04:09:40;;;;;;;;;13.33;11.67;;;;;21.51;44.88;100360.54;110461;1264;14143;-61
2022/09/30 04:12:07;;;;;;;;;10.00;10.00;;;;;21.51;44.83;100363.06;110478;1264;13084;-62
2022/09/30 04:14:35;;;;;;;;;11.00;10.50;;;;;21.51;44.85;100365.33;110472;1264;14345;-61
2022/09/30 04:17:03;;;;;;;;;11.00;10.67;;;;;21.49;44.88;100359.69;110419;1264;14380;-61
2022/09/30 04:19:30;;;;;;;;;9.67;9.33;;;;;21.50;44.76;100365.35;110475;1265;13446;-62
2022/09/30 04:21:57;;;;;;;;;13.33;11.00;;;;;21.50;44.77;100369.38;110442;1265;14227;-62
2022/09/30 04:24:25;;;;;;;;;13.67;13.33;;;;;21.51;44.80;100371.89;110473;1264;13072;-62
2022/09/30 04:26:52;;;;;;;;;11.33;10.00;;;;;21.51;44.70;100378.61;110422;1264;13390;-61
2022/09/30 04:29:19;;;;;;;;;11.33;10.33;;;;;21.50;44.62;100381.20;110329;1264;13712;-62
2022/09/30 04:31:47;;;;;;;;;10.33;9.67;;;;;21.49;44.63;100383.13;110468;1264;14293;-62
2022/09/30 04:34:14;;;;;;;;;11.50;11.00;;;;;21.50;44.54;100386.16;110498;1263;12842;-58
2022/09/30 04:36:42;;;;;;;;;12.00;10.00;;;;;21.50;44.48;100384.19;110468;1264;13838;-62
2022/09/30 04:39:09;;;;;;;;;13.00;10.67;;;;;21.49;44.51;100380.40;110489;1264;12601;-61
2022/09/30 04:41:37;;;;;;;;;10.67;9.33;;;;;21.50;44.46;100377.14;110444;1264;14357;-58
2022/09/30 04:44:05;;;;;;;;;11.00;9.00;;;;;21.49;44.38;100380.45;110445;1264;13654;-62
2022/09/30 04:46:35;;;;;;;;;11.33;10.33;;;;;21.50;44.43;100385.11;110497;1264;15348;-62
2022/09/30 04:49:02;;;;;;;;;9.00;9.00;;;;;21.50;44.32;100389.43;110416;1264;13241;-62
2022/09/30 04:51:30;;;;;;;;;12.50;11.00;;;;;21.50;44.45;100392.70;110439;1263;13072;-60
2022/09/30 04:53:57;;;;;;;;;13.00;11.50;;;;;21.50;44.34;100400.38;110465;1262;13925;-60
2022/09/30 04:56:25;;;;;;;;;10.00;9.67;;;;;21.49;44.25;100403.35;110356;1262;12975;-62
2022/09/30 04:58:52;;;;;;;;;10.33;10.00;;;;;21.48;44.22;100408.55;110415;1264;13530;-59
2022/09/30 05:01:20;;;;;;;;;9.67;9.00;;;;;21.49;44.31;100407.24;110358;1262;13183;-61
2022/09/30 05:03:47;;;;;;;;;10.00;9.00;;;;;21.50;44.27;100408.06;110433;1264;13100;-62
2022/09/30 05:06:15;;;;;;;;;11.00;10.67;;;;;21.50;44.34;100407.55;110487;1264;13228;-61
2022/09/30 05:08:43;;;;;;;;;9.33;9.00;;;;;21.52;44.73;100413.37;110446;1264;13298;-61
2022/09/30 05:11:10;;;;;;;;;13.00;13.00;;;;;21.53;45.12;100415.11;110430;1264;14161;-62
2022/09/30 05:13:37;;;;;;;;;13.33;9.67;;;;;21.51;45.17;100421.59;110417;1262;13809;-64
2022/09/30 05:16:05;;;;;;;;;9.33;9.33;;;;;21.52;45.11;100424.23;110454;1264;12937;-61
2022/09/30 05:18:34;;;;;;;;;10.00;10.00;;;;;21.53;45.21;100430.85;110630;1264;13028;-60
2022/09/30 05:21:01;;;;;;;;;10.00;9.67;;;;;21.53;45.34;100437.27;110387;1265;13229;-61
2022/09/30 05:23:30;;;;;;;;;9.00;9.00;;;;;21.56;45.48;100433.55;110403;1265;13093;-62
2022/09/30 05:25:57;;;;;;;;;9.00;9.00;;;;;21.59;45.68;100430.09;110530;1264;13835;-62
2022/09/30 05:28:25;;;;;;;;;10.00;9.00;;;;;21.59;45.82;100432.77;110303;1264;13141;-60
2022/09/30 05:30:53;;;;;;;;;10.00;9.00;;;;;21.59;45.71;100434.95;110412;1262;13194;-61
2022/09/30 05:33:20;;;;;;;;;10.33;10.00;;;;;21.58;45.78;100437.51;110432;1264;13217;-61
2022/09/30 05:35:47;;;;;;;;;11.33;10.00;;;;;21.57;45.96;100431.56;110321;1264;13944;-61
2022/09/30 05:38:15;;;;;;;;;11.00;9.33;;;;;21.56;45.90;100432.98;110380;1262;13936;-63
2022/09/30 05:40:42;;;;;;;;;10.00;9.33;;;;;21.57;45.95;100438.19;110424;1262;13171;-62
2022/09/30 05:43:10;;;;;;;;;13.00;10.67;;;;;21.56;45.91;100445.86;110439;1264;13482;-60
2022/09/30 05:45:38;;;;;;;;;8.00;7.00;;;;;21.56;45.95;100444.09;110431;1264;13219;-59
2022/09/30 05:48:05;;;;;;;;;9.33;9.00;;;;;21.58;46.02;100448.61;110398;1264;13077;-62
2022/09/30 05:50:33;;;;;;;;;10.00;9.00;;;;;21.63;46.08;100451.86;110408;1264;13192;-60
2022/09/30 05:53:00;;;;;;;;;10.67;9.67;;;;;21.65;46.08;100448.83;110505;1264;12928;-63
2022/09/30 05:55:28;;;;;;;;;9.00;9.00;;;;;21.67;46.06;100455.19;110427;1265;12780;-60
2022/09/30 05:57:56;;;;;;;;;10.00;9.67;;;;;21.63;46.14;100455.50;110388;1263;13928;-61
2022/09/30 06:00:23;;;;;;;;;9.00;9.00;;;;;21.61;46.20;100458.98;110505;1265;18110;-61
2022/09/30 06:02:51;;;;;;;;;9.00;7.00;;;;;21.59;46.18;100457.73;110527;1264;13010;-59
2022/09/30 06:05:18;;;;;;;;;13.00;10.00;;;;;21.57;46.22;100457.06;110466;1263;13108;-61
2022/09/30 06:07:46;;;;;;;;;11.00;10.00;;;;;21.56;46.19;100458.81;110447;1263;12956;-63
2022/09/30 06:10:13;;;;;;;;;11.00;10.67;;;;;21.56;46.17;100456.13;110469;1264;13159;-59
2022/09/30 06:12:40;;;;;;;;;9.67;9.00;;;;;21.55;46.00;100462.08;110473;1264;13220;-60
2022/09/30 06:15:08;;;;;;;;;11.50;10.00;;;;;21.54;45.96;100462.88;110478;1264;12997;-60
2022/09/30 06:17:35;;;;;;;;;9.00;9.00;;;;;21.54;45.95;100460.86;110459;1264;13131;-57
2022/09/30 06:20:04;;;;;;;;;13.00;10.00;;;;;21.54;45.84;100459.67;110469;1263;13283;-61
2022/09/30 06:22:32;;;;;;;;;12.00;10.33;;;;;21.55;45.83;100466.27;110516;1264;12995;-59
2022/09/30 06:25:00;;;;;;;;;11.00;10.50;;;;;21.55;45.70;100464.27;110422;1262;13312;-59
2022/09/30 06:27:28;;;;;;;;;10.00;10.00;;;;;21.56;45.71;100472.96;110451;1264;13303;-62
2022/09/30 06:29:56;;;;;;;;;10.33;10.33;;;;;21.58;45.79;100475.64;110341;1264;13055;-57
2022/09/30 06:32:24;;;;;;;;;10.00;10.00;;;;;21.58;45.94;100477.00;110346;1263;13071;-61
2022/09/30 06:34:54;;;;;;;;;9.00;9.00;;;;;21.59;45.98;100476.29;110405;1264;13724;-60
2022/09/30 06:37:21;;;;;;;;;10.00;9.33;;;;;21.62;45.99;100479.20;111167;1264;14929;-60
2022/09/30 06:39:50;;;;;;;;;10.00;9.00;;;;;21.65;46.67;100483.58;110449;1264;13485;-62
2022/09/30 06:42:17;;;;;;;;;10.67;10.00;;;;;21.70;46.80;100492.11;110463;1264;13004;-58
2022/09/30 06:44:45;;;;;;;;;14.00;13.00;;;;;21.64;47.11;100496.27;110429;1265;13213;-59
2022/09/30 06:47:12;;;;;;;;;16.00;14.33;;;;;21.50;46.93;100501.06;110425;1263;14973;-59
2022/09/30 06:49:40;;;;;;;;;17.00;15.33;;;;;21.39;46.64;100509.16;110474;1264;13261;-59
2022/09/30 06:52:08;;;;;;;;;18.67;17.67;;;;;21.29;46.58;100505.56;110432;1262;13145;-60
2022/09/30 06:54:36;;;;;;;;;18.67;15.00;;;;;21.34;46.59;100507.03;110475;1264;13166;-60
2022/09/30 06:57:03;;;;;;;;;14.00;13.33;;;;;21.42;46.49;100506.16;110505;1264;15182;-59
2022/09/30 06:59:31;;;;;;;;;16.33;14.00;;;;;21.49;46.43;100505.54;110383;1263;13243;-60
2022/09/30 07:01:58;;;;;;;;;14.33;14.00;;;;;21.54;46.32;100507.50;110442;1264;17200;-62
2022/09/30 07:04:26;;;;;;;;;15.33;14.00;;;;;21.56;46.22;100510.84;110343;1265;12835;-61
2022/09/30 07:06:53;;;;;;;;;14.00;14.00;;;;;21.57;46.24;100514.16;110407;1264;13173;-60
2022/09/30 07:09:21;;;;;;;;;13.50;13.00;;;;;21.57;46.27;100511.91;110548;1265;13255;-62
2022/09/30 07:11:48;;;;;;;;;14.67;14.00;;;;;21.60;46.21;100510.94;110442;1263;13206;-60
2022/09/30 07:14:16;;;;;;;;;13.00;13.00;;;;;21.61;46.22;100511.55;110409;1264;13645;-60
2022/09/30 07:16:45;;;;;;;;;14.33;13.00;;;;;21.62;46.26;100518.86;110372;1262;14968;-61
2022/09/30 07:19:13;;;;;;;;;18.00;13.00;;;;;21.69;46.39;100520.25;110469;1263;13568;-62
2022/09/30 07:21:41;;;;;;;;;18.00;17.00;;;;;21.71;46.35;100522.31;110438;1265;13090;-60
2022/09/30 07:24:08;;;;;;;;;14.00;13.50;;;;;21.70;46.30;100520.57;110465;1264;13119;-62
2022/09/30 07:26:35;;;;;;;;;15.67;14.00;;;;;21.75;46.37;100523.66;110462;1264;13200;-61
2022/09/30 07:29:03;;;;;;;;;15.00;14.00;;;;;21.77;46.38;100527.97;110382;1262;13116;-59
2022/09/30 07:31:30;;;;;;;;;13.00;11.00;;;;;21.74;46.19;100527.62;110449;1262;18169;-59
2022/09/30 07:33:58;;;;;;;;;17.00;14.50;;;;;21.64;46.13;100532.64;110335;1262;13414;-61
2022/09/30 07:36:28;;;;;;;;;13.33;13.00;;;;;21.62;46.14;100541.46;110224;1264;143203;-60
2022/09/30 07:38:56;;;;;;;;;15.33;14.33;;;;;21.62;46.10;100548.39;110340;1264;13577;-57
2022/09/30 07:41:26;;;;;;;;;15.00;14.33;;;;;21.62;46.05;100551.41;110490;1264;13206;-59
2022/09/30 07:43:55;;;;;;;;;16.33;14.00;;;;;21.61;46.09;100548.59;110430;1264;13196;-61
2022/09/30 07:46:23;;;;;;;;;11.00;11.00;;;;;21.62;45.97;100546.89;110374;1264;13361;-59
2022/09/30 07:48:51;;;;;;;;;17.00;15.50;;;;;21.61;46.16;100546.23;110444;1265;13269;-59
2022/09/30 07:51:18;;;;;;;;;23.00;20.50;;;;;21.45;46.14;100549.48;110443;1264;13252;-60
2022/09/30 07:53:46;;;;;;;;;27.00;25.50;;;;;21.23;45.87;100555.98;110385;1264;13099;-59
2022/09/30 07:56:13;;;;;;;;;30.33;25.67;;;;;21.06;45.82;100558.13;110413;1262;13090;-62
2022/09/30 07:58:41;;;;;;;;;35.67;30.67;;;;;20.92;46.54;100558.86;110356;1262;13086;-59
2022/09/30 08:01:08;;;;;;;;;37.67;31.33;;;;;20.83;46.60;100565.23;110413;1264;13315;-59
2022/09/30 08:03:37;;;;;;;;;31.33;30.67;;;;;20.76;46.29;100565.88;110399;1264;13187;-58
2022/09/30 08:06:05;;;;;;;;;37.00;30.00;;;;;20.67;46.06;100567.38;110446;1264;13255;-60
2022/09/30 08:08:33;;;;;;;;;35.00;32.00;;;;;20.58;45.80;100567.74;110402;1265;13245;-58
2022/09/30 08:11:00;;;;;;;;;42.00;37.00;;;;;20.53;45.63;100567.53;110443;1264;15474;-60
2022/09/30 08:13:28;;;;;;;;;30.33;26.67;;;;;20.51;45.53;100562.06;110434;1262;13363;-59
2022/09/30 08:15:55;;;;;;;;;26.00;26.00;;;;;20.75;45.40;100569.25;110436;1263;13190;-59
2022/09/30 08:18:23;;;;;;;;;28.50;26.00;;;;;21.00;45.26;100575.37;110464;1264;11355;-60
2022/09/30 08:20:50;;;;;;;;;20.00;18.00;;;;;21.14;45.21;100573.05;110441;1264;13225;-59
2022/09/30 08:23:17;;;;;;;;;22.00;20.50;;;;;21.24;45.40;100569.83;110400;1265;13679;-60
2022/09/30 08:25:45;;;;;;;;;20.67;19.33;;;;;21.29;45.45;100568.30;110426;1264;13185;-57
2022/09/30 08:28:13;;;;;;;;;16.67;16.67;;;;;21.31;45.58;100573.34;110399;1264;13282;-58
2022/09/30 08:30:40;;;;;;;;;14.33;13.00;;;;;21.36;45.66;100581.13;110489;1264;13176;-60
2022/09/30 08:33:07;;;;;;;;;18.33;17.00;;;;;21.40;45.72;100584.63;110412;1265;13232;-59
2022/09/30 08:35:35;;;;;;;;;17.67;15.00;;;;;21.42;45.81;100584.21;110420;1262;13164;-61
2022/09/30 08:38:02;;;;;;;;;18.00;15.00;;;;;21.43;45.92;100585.49;110456;1263;13255;-60
2022/09/30 08:40:29;;;;;;;;;13.00;13.00;;;;;21.44;46.00;100590.66;110423;1264;13136;-61
2022/09/30 08:42:57;;;;;;;;;15.33;15.00;;;;;21.46;46.13;100591.91;110449;1262;13417;-61
2022/09/30 08:45:24;;;;;;;;;11.50;11.00;;;;;21.47;46.20;100591.73;110485;1264;13190;-60
2022/09/30 08:47:52;;;;;;;;;13.00;12.33;;;;;21.48;46.28;100599.71;110427;1262;13213;-62
2022/09/30 08:50:19;;;;;;;;;13.33;11.00;;;;;21.48;46.36;100598.38;110434;1264;13053;-60
2022/09/30 08:52:47;;;;;;;;;10.00;10.00;;;;;21.50;46.58;100603.59;110335;1264;13497;-62
2022/09/30 08:55:14;;;;;;;;;11.00;11.00;;;;;21.50;46.49;100603.55;110434;1264;13205;-61
2022/09/30 08:57:42;;;;;;;;;17.33;13.00;;;;;21.50;46.54;100602.80;110440;1262;13142;-60
2022/09/30 09:00:10;;;;;;;;;14.00;14.00;;;;;21.51;46.71;100602.69;110408;1264;13175;-59
2022/09/30 09:02:37;;;;;;;;;11.00;10.50;;;;;21.57;46.96;100600.88;110439;1264;13042;-60
2022/09/30 09:05:05;;;;;;;;;11.67;10.00;;;;;21.55;47.02;100603.80;110410;1263;13139;-59
2022/09/30 09:07:32;;;;;;;;;11.33;11.33;;;;;21.57;46.99;100601.37;110427;1265;13317;-61
2022/09/30 09:09:59;;;;;;;;;10.00;10.00;;;;;21.60;47.15;100603.77;110427;1264;13159;-60
2022/09/30 09:12:27;;;;;;;;;11.00;10.50;;;;;21.60;47.47;100604.32;110424;1264;13190;-60
2022/09/30 09:14:55;;;;;;;;;15.00;14.00;;;;;21.63;47.36;100604.21;110356;1264;13009;-60
2022/09/30 09:17:22;;;;;;;;;11.67;10.67;;;;;21.62;47.38;100602.35;110421;1264;13207;-61
2022/09/30 09:19:49;;;;;;;;;13.00;11.00;;;;;21.62;47.60;100605.45;110462;1265;13226;-62
2022/09/30 09:22:17;;;;;;;;;14.00;12.67;;;;;21.62;47.73;100603.65;110437;1264;13250;-59
2022/09/30 09:24:46;;;;;;;;;13.33;12.67;;;;;21.61;47.83;100607.51;110446;1264;13083;-60
2022/09/30 09:27:13;;;;;;;;;10.67;10.67;;;;;21.60;47.91;100608.00;110511;1264;13302;-59
2022/09/30 09:29:41;;;;;;;;;10.00;10.00;;;;;21.60;47.94;100609.48;110430;1262;13209;-60
2022/09/30 09:32:08;;;;;;;;;10.00;10.00;;;;;21.60;47.90;100610.52;110428;1264;13718;-60
2022/09/30 09:34:36;;;;;;;;;11.00;11.00;;;;;21.62;47.85;100610.00;110433;1264;14007;-61
2022/09/30 09:37:03;;;;;;;;;12.67;10.33;;;;;21.63;47.81;100612.19;110416;1263;13089;-60
2022/09/30 09:39:30;;;;;;;;;11.00;10.00;;;;;21.64;47.79;100614.30;110455;1264;15286;-60
2022/09/30 09:41:58;;;;;;;;;11.67;9.67;;;;;21.64;47.84;100614.47;110365;1265;13110;-60
2022/09/30 09:44:25;;;;;;;;;9.00;7.00;;;;;21.65;47.86;100611.94;110420;1264;13214;-62
2022/09/30 09:46:54;;;;;;;;;10.00;9.50;;;;;21.66;47.94;100615.06;110303;1264;13060;-60
2022/09/30 09:49:23;;;;;;;;;13.33;10.33;;;;;21.67;47.93;100615.54;110277;1264;13213;-60
2022/09/30 09:51:50;;;;;;;;;10.00;9.00;;;;;21.65;48.09;100616.14;110200;1264;14062;-60
2022/09/30 09:54:17;;;;;;;;;11.00;10.67;;;;;21.68;48.09;100617.94;110418;1264;12854;-62
2022/09/30 09:56:45;;;;;;;;;10.00;8.00;;;;;21.70;48.14;100611.71;110425;1264;13094;-61
2022/09/30 09:59:12;;;;;;;;;9.33;9.33;;;;;21.71;48.24;100613.58;110425;1264;13439;-60
2022/09/30 10:01:39;;;;;;;;;7.00;7.00;;;;;21.72;48.31;100613.34;110406;1264;13079;-60
2022/09/30 10:04:08;;;;;;;;;10.00;9.67;;;;;21.72;48.39;100612.55;110383;1264;12860;-61
2022/09/30 10:06:35;;;;;;;;;9.00;9.00;;;;;21.72;48.49;100610.74;110470;1264;13017;-62
2022/09/30 10:09:03;;;;;;;;;9.00;7.00;;;;;21.71;48.60;100613.04;110396;1265;12872;-59
2022/09/30 10:11:30;;;;;;;;;6.67;6.67;;;;;21.71;48.68;100613.76;110435;1264;13154;-60
2022/09/30 10:13:57;;;;;;;;;11.00;9.33;;;;;21.72;48.64;100612.59;110336;1262;13254;-60
2022/09/30 10:16:25;;;;;;;;;8.33;7.00;;;;;21.71;48.66;100610.14;110381;1264;12633;-60
2022/09/30 10:18:52;;;;;;;;;7.00;7.00;;;;;21.72;48.72;100613.52;110392;1262;12981;-58
2022/09/30 10:21:19;;;;;;;;;9.00;9.00;;;;;21.71;48.77;100613.59;110392;1264;13191;-58
2022/09/30 10:23:47;;;;;;;;;7.00;7.00;;;;;21.72;48.74;100615.78;110372;1262;13067;-60
2022/09/30 10:26:14;;;;;;;;;9.67;9.00;;;;;21.72;48.80;100616.58;110354;1262;13088;-59
2022/09/30 10:28:41;;;;;;;;;7.33;6.67;;;;;21.72;48.78;100613.85;110400;1262;13150;-61
2022/09/30 10:31:09;;;;;;;;;6.00;6.00;;;;;21.72;48.75;100608.19;110467;1264;13218;-59
2022/09/30 10:33:36;;;;;;;;;6.67;6.67;;;;;21.73;48.73;100606.94;110459;1265;14955;-57
2022/09/30 10:36:04;;;;;;;;;7.00;6.00;;;;;21.74;48.76;100611.27;110295;1264;13063;-61
2022/09/30 10:38:33;;;;;;;;;8.00;7.00;;;;;21.73;48.77;100612.95;110446;1262;13113;-61
2022/09/30 10:41:00;;;;;;;;;8.00;6.67;;;;;21.74;48.76;100617.06;110402;1264;13097;-58
2022/09/30 10:43:28;;;;;;;;;5.00;5.00;;;;;21.74;48.73;100611.81;110340;1265;13109;-58
2022/09/30 10:45:58;;;;;;;;;6.00;5.67;;;;;21.74;48.78;100610.30;110266;1264;13467;-60
2022/09/30 10:48:25;;;;;;;;;6.00;6.00;;;;;21.73;48.77;100604.75;110389;1264;12929;-59
2022/09/30 10:50:53;;;;;;;;;7.00;7.00;;;;;21.75;48.73;100608.86;110437;1265;14889;-57
2022/09/30 10:53:20;;;;;;;;;6.33;6.00;;;;;21.76;48.72;100607.48;110412;1264;13122;-61
2022/09/30 10:55:47;;;;;;;;;6.00;6.00;;;;;21.77;48.65;100605.96;110392;1265;14972;-59
2022/09/30 10:58:15;;;;;;;;;7.00;6.50;;;;;21.78;48.73;100606.14;110429;1265;12776;-60
2022/09/30 11:00:43;;;;;;;;;6.00;6.00;;;;;21.79;48.87;100602.75;110363;1264;13077;-61
2022/09/30 11:03:11;;;;;;;;;6.33;6.00;;;;;21.80;49.00;100605.77;110397;1264;13059;-60
2022/09/30 11:05:38;;;;;;;;;7.00;6.50;;;;;21.80;49.00;100606.29;110424;1264;12520;-59